createdAt,value
2018-04-22T00:00:50.583Z,13.80
2018-04-22T00:03:17.101Z,13.80
2018-04-22T00:05:43.587Z,13.70
2018-04-22T00:08:10.040Z,13.70
2018-04-22T00:10:36.458Z,13.60
2018-04-22T00:13:02.893Z,13.60
2018-04-22T00:15:29.352Z,13.40
2018-04-22T00:17:56.517Z,13.40
2018-04-22T00:20:22.968Z,13.40
2018-04-22T00:22:49.537Z,13.40
2018-04-22T00:25:16.762Z,13.30
2018-04-22T00:27:43.178Z,13.30
2018-04-22T00:30:09.621Z,13.20
2018-04-22T00:32:36.021Z,13.20
2018-04-22T00:35:02.463Z,13.30
2018-04-22T00:37:29.612Z,13.20
2018-04-22T00:39:56.769Z,13.20
2018-04-22T00:42:23.211Z,13.10
2018-04-22T00:44:49.589Z,13.10
2018-04-22T00:47:16.731Z,13.00
2018-04-22T00:49:43.885Z,13.00
2018-04-22T00:52:11.053Z,13.00
2018-04-22T00:54:38.246Z,13.00
2018-04-22T00:57:04.654Z,13.00
2018-04-22T00:59:31.792Z,12.90
2018-04-22T01:01:58.202Z,12.90
2018-04-22T01:04:24.578Z,12.90
2018-04-22T01:06:51.032Z,12.80
2018-04-22T01:09:17.404Z,12.80
2018-04-22T01:11:44.532Z,12.70
2018-04-22T01:14:10.939Z,12.60
2018-04-22T01:16:37.399Z,12.80
2018-04-22T01:19:03.813Z,12.60
2018-04-22T01:21:30.289Z,12.70
2018-04-22T01:23:56.709Z,12.70
2018-04-22T01:26:23.121Z,12.70
2018-04-22T01:28:50.259Z,12.70
2018-04-22T01:31:16.679Z,12.70
2018-04-22T01:33:43.077Z,12.70
2018-04-22T01:36:09.634Z,12.70
2018-04-22T01:38:36.014Z,12.70
2018-04-22T01:41:02.452Z,12.70
2018-04-22T01:43:28.865Z,12.70
2018-04-22T01:45:55.273Z,12.70
2018-04-22T01:48:22.454Z,12.80
2018-04-22T01:50:49.568Z,12.80
2018-04-22T01:53:15.981Z,12.80
2018-04-22T01:55:42.390Z,12.90
2018-04-22T01:58:09.528Z,13.00
2018-04-22T02:00:36.677Z,13.00
2018-04-22T02:03:03.128Z,13.00
2018-04-22T02:05:29.615Z,12.90
2018-04-22T02:07:56.016Z,13.00
2018-04-22T02:10:23.169Z,13.00
2018-04-22T02:12:49.609Z,12.90
2018-04-22T02:15:16.056Z,13.00
2018-04-22T02:17:42.464Z,12.90
2018-04-22T02:20:08.864Z,12.90
2018-04-22T02:22:36.076Z,12.80
2018-04-22T02:25:02.547Z,12.80
2018-04-22T02:27:28.933Z,12.80
2018-04-22T02:29:55.321Z,12.70
2018-04-22T02:32:21.724Z,12.60
2018-04-22T02:34:48.103Z,12.60
2018-04-22T02:37:14.573Z,12.60
2018-04-22T02:39:41.835Z,12.50
2018-04-22T02:42:08.972Z,12.40
2018-04-22T02:44:36.113Z,12.40
2018-04-22T02:47:02.558Z,12.40
2018-04-22T02:49:28.952Z,12.40
2018-04-22T02:51:56.165Z,12.40
2018-04-22T02:54:22.562Z,12.40
2018-04-22T02:56:49.700Z,12.30
2018-04-22T02:59:16.233Z,12.30
2018-04-22T03:01:42.744Z,12.30
2018-04-22T03:04:09.180Z,12.30
2018-04-22T03:06:35.557Z,12.20
2018-04-22T03:09:02.018Z,12.30
2018-04-22T03:11:29.134Z,12.30
2018-04-22T03:13:55.593Z,12.20
2018-04-22T03:16:22.750Z,12.30
2018-04-22T03:18:49.190Z,12.30
2018-04-22T03:21:15.626Z,12.20
2018-04-22T03:23:42.044Z,12.20
2018-04-22T03:26:08.526Z,12.20
2018-04-22T03:28:35.772Z,12.20
2018-04-22T03:31:02.315Z,12.20
2018-04-22T03:33:29.079Z,11.90
2018-04-22T03:35:55.546Z,12.30
2018-04-22T03:38:23.549Z,12.30
2018-04-22T03:40:50.768Z,12.30
2018-04-22T03:43:17.210Z,12.30
2018-04-22T03:45:43.649Z,12.30
2018-04-22T03:48:10.107Z,12.30
2018-04-22T03:50:36.651Z,12.30
2018-04-22T03:53:03.471Z,12.40
2018-04-22T03:55:31.073Z,12.30
2018-04-22T03:58:05.480Z,12.30
2018-04-22T04:00:34.776Z,12.30
2018-04-22T04:03:01.365Z,12.30
2018-04-22T04:05:30.587Z,12.30
2018-04-22T04:08:01.405Z,12.30
2018-04-22T04:10:30.053Z,12.30
2018-04-22T04:12:57.161Z,12.30
2018-04-22T04:15:24.682Z,12.30
2018-04-22T04:18:02.069Z,12.20
2018-04-22T04:20:40.933Z,12.20
2018-04-22T04:23:09.087Z,12.20
2018-04-22T04:25:48.123Z,12.20
2018-04-22T04:28:14.697Z,12.10
2018-04-22T04:30:41.836Z,11.70
2018-04-22T04:33:11.225Z,12.00
2018-04-22T04:35:39.997Z,12.00
2018-04-22T04:38:08.276Z,12.00
2018-04-22T04:40:35.598Z,12.00
2018-04-22T04:43:02.764Z,12.10
2018-04-22T04:45:30.212Z,12.10
2018-04-22T04:47:57.676Z,12.00
2018-04-22T04:50:26.641Z,12.00
2018-04-22T04:52:54.138Z,12.10
2018-04-22T04:55:21.568Z,12.00
2018-04-22T04:57:48.000Z,12.00
2018-04-22T05:00:15.531Z,12.00
2018-04-22T05:02:43.312Z,11.90
2018-04-22T05:05:10.511Z,11.90
2018-04-22T05:07:36.992Z,11.80
2018-04-22T05:10:04.977Z,11.90
2018-04-22T05:12:31.609Z,11.90
2018-04-22T05:15:01.448Z,11.90
2018-04-22T05:17:28.935Z,12.00
2018-04-22T05:19:58.537Z,12.00
2018-04-22T05:22:26.394Z,12.10
2018-04-22T05:24:54.543Z,11.30
2018-04-22T05:27:21.113Z,12.20
2018-04-22T05:29:48.386Z,12.30
2018-04-22T05:32:14.880Z,12.40
2018-04-22T05:34:43.146Z,12.60
2018-04-22T05:37:09.611Z,12.50
2018-04-22T05:39:36.244Z,12.70
2018-04-22T05:42:02.914Z,12.80
2018-04-22T05:44:30.134Z,12.90
2018-04-22T05:46:56.925Z,13.00
2018-04-22T05:49:23.457Z,13.10
2018-04-22T05:51:51.073Z,13.30
2018-04-22T05:54:18.310Z,13.50
2018-04-22T05:56:48.122Z,13.90
2018-04-22T05:59:20.464Z,14.10
2018-04-22T06:01:49.921Z,14.10
2018-04-22T06:04:17.584Z,14.30
2018-04-22T06:06:45.947Z,14.40
2018-04-22T06:09:14.245Z,14.60
2018-04-22T06:11:41.230Z,14.70
2018-04-22T06:14:07.837Z,14.90
2018-04-22T06:16:35.110Z,15.10
2018-04-22T06:19:02.589Z,15.20
2018-04-22T06:21:30.297Z,15.40
2018-04-22T06:23:56.939Z,15.50
2018-04-22T06:26:25.374Z,15.60
2018-04-22T06:28:53.153Z,15.80
2018-04-22T06:31:21.659Z,15.90
2018-04-22T06:33:52.241Z,16.00
2018-04-22T06:36:19.529Z,16.20
2018-04-22T06:38:46.097Z,16.50
2018-04-22T06:41:13.992Z,16.50
2018-04-22T06:43:42.500Z,16.50
2018-04-22T06:46:10.596Z,16.60
2018-04-22T06:48:39.505Z,16.80
2018-04-22T06:51:06.940Z,16.90
2018-04-22T06:53:35.514Z,16.90
2018-04-22T06:56:03.636Z,17.00
2018-04-22T06:58:30.427Z,17.10
2018-04-22T07:00:59.606Z,17.50
2018-04-22T07:03:27.969Z,17.50
2018-04-22T07:05:55.655Z,18.20
2018-04-22T07:08:23.249Z,18.80
2018-04-22T07:10:50.727Z,20.10
2018-04-22T07:13:17.506Z,20.70
2018-04-22T07:15:44.936Z,21.40
2018-04-22T07:18:13.473Z,21.40
2018-04-22T07:20:42.701Z,22.10
2018-04-22T07:23:10.490Z,22.10
2018-04-22T07:25:37.244Z,22.20
2018-04-22T07:28:05.453Z,22.60
2018-04-22T07:30:33.366Z,22.60
2018-04-22T07:33:00.471Z,22.90
2018-04-22T07:35:29.589Z,23.70
2018-04-22T07:37:56.613Z,23.10
2018-04-22T07:40:23.309Z,23.30
2018-04-22T07:42:51.711Z,23.60
2018-04-22T07:45:19.644Z,23.80
2018-04-22T07:47:47.148Z,23.80
2018-04-22T07:50:13.985Z,23.90
2018-04-22T07:52:40.685Z,24.00
2018-04-22T07:55:07.371Z,24.10
2018-04-22T07:57:34.974Z,24.10
2018-04-22T08:00:03.555Z,24.50
2018-04-22T08:02:31.160Z,24.50
2018-04-22T08:04:58.717Z,24.70
2018-04-22T08:10:32.519Z,25.30
2018-04-22T08:13:00.356Z,25.70
2018-04-22T08:15:27.056Z,26.30
2018-04-22T08:17:54.127Z,26.50
2018-04-22T08:20:32.240Z,26.80
2018-04-22T08:23:06.172Z,26.80
2018-04-22T08:25:33.524Z,27.30
2018-04-22T08:28:00.257Z,27.00
2018-04-22T08:30:28.535Z,27.00
2018-04-22T08:32:55.269Z,26.80
2018-04-22T08:35:26.423Z,26.90
2018-04-22T08:37:53.318Z,26.80
2018-04-22T08:40:20.085Z,26.30
2018-04-22T08:42:54.625Z,26.10
2018-04-22T08:45:21.322Z,26.20
2018-04-22T08:47:50.073Z,25.90
2018-04-22T08:50:19.389Z,26.20
2018-04-22T08:52:47.209Z,26.00
2018-04-22T08:55:14.437Z,26.00
2018-04-22T08:57:42.310Z,25.00
2018-04-22T09:00:11.149Z,25.20
2018-04-22T09:02:38.893Z,25.20
2018-04-22T09:05:08.477Z,25.50
2018-04-22T09:07:35.585Z,25.50
2018-04-22T09:10:02.732Z,25.40
2018-04-22T09:12:31.318Z,25.30
2018-04-22T09:14:58.377Z,25.50
2018-04-22T09:17:27.589Z,25.90
2018-04-22T09:19:58.450Z,25.90
2018-04-22T09:22:26.574Z,26.10
2018-04-22T09:24:54.734Z,26.10
2018-04-22T09:27:22.587Z,26.20
2018-04-22T09:29:50.977Z,26.80
2018-04-22T09:32:20.013Z,26.80
2018-04-22T09:34:46.591Z,27.20
2018-04-22T09:37:14.194Z,27.30
2018-04-22T09:39:41.582Z,27.70
2018-04-22T09:42:08.163Z,27.90
2018-04-22T09:44:34.930Z,27.90
2018-04-22T09:47:06.062Z,27.70
2018-04-22T09:49:33.408Z,27.70
2018-04-22T09:52:00.532Z,27.80
2018-04-22T09:54:27.897Z,27.90
2018-04-22T09:56:55.554Z,27.70
2018-04-22T09:59:24.665Z,27.80
2018-04-22T10:01:51.832Z,27.80
2018-04-22T10:04:19.161Z,27.90
2018-04-22T10:06:45.920Z,27.90
2018-04-22T10:09:12.448Z,28.10
2018-04-22T10:11:39.056Z,28.00
2018-04-22T10:14:05.685Z,28.10
2018-04-22T10:16:32.512Z,28.10
2018-04-22T10:19:00.051Z,28.20
2018-04-22T10:21:26.526Z,27.90
2018-04-22T10:23:54.196Z,27.70
2018-04-22T10:26:21.720Z,27.60
2018-04-22T10:28:49.312Z,27.90
2018-04-22T10:31:16.834Z,28.10
2018-04-22T10:33:44.591Z,28.30
2018-04-22T10:36:12.029Z,28.50
2018-04-22T10:38:39.548Z,28.40
2018-04-22T10:41:06.249Z,28.70
2018-04-22T10:43:34.616Z,29.60
2018-04-22T10:46:02.592Z,29.60
2018-04-22T10:48:30.444Z,29.80
2018-04-22T10:50:59.216Z,29.70
2018-04-22T10:53:26.539Z,29.40
2018-04-22T10:55:53.069Z,29.20
2018-04-22T10:58:20.509Z,28.90
2018-04-22T11:00:48.774Z,28.80
2018-04-22T11:03:15.468Z,28.70
2018-04-22T11:05:44.941Z,28.40
2018-04-22T11:08:12.921Z,28.30
2018-04-22T11:10:41.214Z,28.30
2018-04-22T11:13:08.579Z,28.10
2018-04-22T11:15:36.608Z,28.10
2018-04-22T11:18:05.774Z,28.90
2018-04-22T11:20:32.415Z,28.90
2018-04-22T11:22:58.980Z,29.40
2018-04-22T11:25:25.704Z,29.60
2018-04-22T11:27:53.930Z,29.80
2018-04-22T11:30:22.261Z,30.00
2018-04-22T11:32:48.891Z,30.00
2018-04-22T11:35:16.091Z,29.90
2018-04-22T11:37:43.467Z,30.10
2018-04-22T11:40:10.233Z,30.00
2018-04-22T11:42:37.494Z,30.10
2018-04-22T11:45:05.993Z,30.00
2018-04-22T11:47:33.265Z,30.10
2018-04-22T11:49:59.827Z,30.10
2018-04-22T11:52:28.539Z,29.90
2018-04-22T11:54:55.045Z,30.00
2018-04-22T11:57:22.470Z,29.80
2018-04-22T11:59:48.967Z,29.30
2018-04-22T12:02:15.486Z,28.70
2018-04-22T12:04:42.224Z,28.30
2018-04-22T12:07:08.677Z,27.80
2018-04-22T12:09:35.270Z,27.30
2018-04-22T12:12:02.907Z,26.90
2018-04-22T12:14:31.448Z,26.40
2018-04-22T12:16:58.021Z,26.00
2018-04-22T12:19:25.215Z,25.70
2018-04-22T12:21:52.444Z,25.40
2018-04-22T12:24:19.067Z,25.30
2018-04-22T12:26:45.727Z,25.20
2018-04-22T12:29:12.318Z,25.00
2018-04-22T12:31:40.139Z,24.60
2018-04-22T12:34:06.703Z,25.60
2018-04-22T12:36:33.270Z,26.80
2018-04-22T12:38:59.814Z,28.10
2018-04-22T12:41:27.371Z,29.20
2018-04-22T12:43:54.622Z,29.10
2018-04-22T12:46:23.158Z,29.00
2018-04-22T12:48:50.509Z,29.00
2018-04-22T12:51:19.170Z,29.00
2018-04-22T12:53:46.277Z,29.20
2018-04-22T12:56:13.624Z,29.20
2018-04-22T12:58:40.332Z,29.10
2018-04-22T13:01:07.065Z,29.60
2018-04-22T13:03:34.724Z,30.10
2018-04-22T13:06:03.295Z,30.90
2018-04-22T13:08:30.073Z,30.80
2018-04-22T13:10:59.550Z,31.00
2018-04-22T13:13:26.927Z,30.30
2018-04-22T13:15:53.561Z,30.30
2018-04-22T13:18:22.249Z,30.40
2018-04-22T13:20:48.809Z,30.30
2018-04-22T13:23:15.348Z,30.20
2018-04-22T13:25:43.914Z,30.00
2018-04-22T13:28:11.334Z,29.60
2018-04-22T13:30:37.911Z,29.60
2018-04-22T13:33:06.396Z,29.70
2018-04-22T13:35:33.251Z,29.10
2018-04-22T13:38:03.054Z,29.80
2018-04-22T13:40:30.246Z,29.90
2018-04-22T13:43:00.544Z,29.70
2018-04-22T13:45:27.295Z,29.60
2018-04-22T13:47:55.948Z,29.60
2018-04-22T13:50:25.591Z,29.40
2018-04-22T13:52:52.248Z,29.40
2018-04-22T13:55:22.897Z,29.70
2018-04-22T13:57:56.972Z,30.00
2018-04-22T14:00:25.459Z,30.00
2018-04-22T14:02:53.701Z,30.40
2018-04-22T14:05:23.569Z,30.90
2018-04-22T14:07:52.621Z,31.20
2018-04-22T14:10:22.929Z,31.30
2018-04-22T14:12:50.479Z,31.10
2018-04-22T14:15:17.625Z,30.90
2018-04-22T14:17:45.640Z,30.60
2018-04-22T14:20:12.858Z,30.60
2018-04-22T14:22:44.042Z,30.00
2018-04-22T14:25:12.213Z,29.90
2018-04-22T14:27:39.769Z,29.80
2018-04-22T14:30:08.510Z,30.10
2018-04-22T14:32:37.478Z,30.60
2018-04-22T14:35:05.356Z,30.70
2018-04-22T14:37:33.734Z,30.90
2018-04-22T14:40:01.757Z,31.00
2018-04-22T14:42:30.249Z,31.00
2018-04-22T14:45:09.115Z,31.10
2018-04-22T14:47:36.796Z,31.40
2018-04-22T14:50:07.133Z,31.90
2018-04-22T14:52:35.467Z,31.80
2018-04-22T14:55:05.445Z,32.00
2018-04-22T14:57:32.081Z,31.90
2018-04-22T15:00:00.957Z,31.20
2018-04-22T15:02:28.728Z,30.30
2018-04-22T15:04:56.401Z,28.60
2018-04-22T15:07:23.582Z,28.50
2018-04-22T15:09:50.128Z,28.00
2018-04-22T15:12:17.105Z,27.60
2018-04-22T15:14:45.576Z,27.20
2018-04-22T15:17:13.742Z,26.80
2018-04-22T15:19:40.699Z,26.80
2018-04-22T15:22:08.194Z,26.80
2018-04-22T15:24:36.043Z,26.60
2018-04-22T15:27:04.518Z,26.30
2018-04-22T15:29:33.320Z,26.20
2018-04-22T15:32:00.554Z,26.10
2018-04-22T15:34:28.119Z,26.10
2018-04-22T15:36:54.831Z,26.10
2018-04-22T15:39:22.194Z,27.00
2018-04-22T15:41:48.698Z,28.70
2018-04-22T15:44:15.226Z,30.40
2018-04-22T15:46:41.760Z,31.30
2018-04-22T15:49:08.336Z,32.00
2018-04-22T15:51:34.875Z,32.50
2018-04-22T15:54:01.421Z,33.10
2018-04-22T15:56:28.708Z,33.20
2018-04-22T15:58:55.393Z,33.40
2018-04-22T16:01:22.641Z,32.50
2018-04-22T16:03:49.193Z,32.40
2018-04-22T16:06:15.735Z,32.10
2018-04-22T16:08:42.832Z,31.90
2018-04-22T16:11:10.382Z,32.10
2018-04-22T16:13:37.140Z,32.10
2018-04-22T16:16:05.108Z,32.00
2018-04-22T16:18:34.410Z,31.60
2018-04-22T16:21:02.872Z,31.40
2018-04-22T16:23:32.109Z,31.40
2018-04-22T16:25:59.331Z,31.80
2018-04-22T16:28:27.647Z,31.80
2018-04-22T16:30:54.896Z,31.70
2018-04-22T16:33:22.454Z,31.70
2018-04-22T16:35:50.043Z,31.30
2018-04-22T16:38:17.916Z,31.20
2018-04-22T16:40:45.559Z,31.10
2018-04-22T16:43:13.246Z,31.10
2018-04-22T16:45:40.739Z,30.50
2018-04-22T16:48:07.640Z,30.00
2018-04-22T16:50:35.029Z,29.50
2018-04-22T16:53:02.674Z,29.20
2018-04-22T16:55:30.982Z,28.60
2018-04-22T16:57:59.396Z,27.90
2018-04-22T17:00:25.874Z,27.30
2018-04-22T17:02:55.179Z,26.90
2018-04-22T17:05:21.750Z,26.80
2018-04-22T17:07:49.381Z,26.60
2018-04-22T17:10:17.615Z,26.20
2018-04-22T17:12:48.842Z,26.10
2018-04-22T17:15:17.034Z,26.10
2018-04-22T17:17:44.932Z,26.00
2018-04-22T17:20:11.552Z,26.00
2018-04-22T17:22:38.422Z,25.70
2018-04-22T17:25:05.652Z,25.50
2018-04-22T17:27:32.617Z,25.40
2018-04-22T17:30:01.102Z,25.40
2018-04-22T17:32:29.932Z,25.20
2018-04-22T17:34:57.912Z,25.00
2018-04-22T17:37:25.786Z,25.00
2018-04-22T17:39:53.510Z,25.00
2018-04-22T17:42:21.775Z,25.10
2018-04-22T17:44:54.785Z,25.30
2018-04-22T17:47:22.452Z,25.50
2018-04-22T17:49:49.698Z,25.30
2018-04-22T17:52:22.294Z,25.00
2018-04-22T17:54:52.153Z,24.60
2018-04-22T17:57:22.566Z,24.10
2018-04-22T18:00:05.186Z,24.00
2018-04-22T18:02:31.717Z,24.00
2018-04-22T18:04:59.009Z,23.40
2018-04-22T18:07:25.992Z,23.30
2018-04-22T18:09:53.185Z,23.30
2018-04-22T18:12:20.324Z,23.10
2018-04-22T18:14:46.893Z,23.10
2018-04-22T18:17:14.271Z,22.90
2018-04-22T18:19:41.549Z,22.90
2018-04-22T18:22:11.163Z,22.80
2018-04-22T18:24:38.465Z,22.80
2018-04-22T18:27:05.754Z,22.70
2018-04-22T18:29:32.427Z,22.70
2018-04-22T18:31:59.794Z,22.60
2018-04-22T18:34:27.347Z,22.40
2018-04-22T18:36:53.933Z,22.10
2018-04-22T18:39:20.415Z,21.90
2018-04-22T18:41:47.709Z,21.40
2018-04-22T18:44:14.284Z,21.30
2018-04-22T18:46:40.933Z,21.10
2018-04-22T18:49:07.523Z,20.90
2018-04-22T18:51:34.129Z,20.70
2018-04-22T18:54:01.478Z,20.40
2018-04-22T18:56:28.888Z,20.20
2018-04-22T18:58:56.041Z,20.20
2018-04-22T19:01:24.144Z,20.10
2018-04-22T19:03:53.066Z,19.90
2018-04-22T19:06:19.554Z,19.80
2018-04-22T19:08:46.911Z,19.30
2018-04-22T19:11:14.709Z,19.50
2018-04-22T19:13:41.198Z,19.20
2018-04-22T19:16:08.670Z,19.10
2018-04-22T19:18:35.231Z,19.00
2018-04-22T19:21:01.681Z,18.90
2018-04-22T19:23:28.105Z,18.80
2018-04-22T19:25:54.548Z,18.70
2018-04-22T19:28:21.153Z,18.90
2018-04-22T19:30:48.313Z,18.30
2018-04-22T19:33:15.530Z,18.20
2018-04-22T19:35:41.933Z,18.10
2018-04-22T19:38:08.344Z,18.00
2018-04-22T19:40:34.786Z,17.90
2018-04-22T19:43:02.079Z,17.70
2018-04-22T19:45:28.494Z,17.60
2018-04-22T19:47:55.005Z,17.50
2018-04-22T19:50:21.417Z,17.40
2018-04-22T19:52:47.893Z,17.30
2018-04-22T19:55:14.310Z,17.20
2018-04-22T19:57:40.717Z,17.10
2018-04-22T20:00:07.237Z,17.00
2018-04-22T20:02:34.536Z,16.90
2018-04-22T20:05:01.751Z,16.80
2018-04-22T20:07:29.021Z,16.70
2018-04-22T20:09:55.448Z,16.70
2018-04-22T20:12:21.821Z,16.40
2018-04-22T20:14:48.265Z,16.60
2018-04-22T20:17:14.823Z,16.50
2018-04-22T20:19:41.337Z,16.20
2018-04-22T20:22:07.780Z,16.40
2018-04-22T20:24:34.323Z,16.30
2018-04-22T20:27:00.723Z,16.20
2018-04-22T20:29:34.053Z,16.20
2018-04-22T20:32:00.533Z,16.10
2018-04-22T20:34:26.931Z,16.00
2018-04-22T20:36:53.344Z,15.90
2018-04-22T20:39:19.828Z,15.90
2018-04-22T20:41:46.272Z,15.80
2018-04-22T20:44:12.712Z,15.70
2018-04-22T20:46:39.233Z,15.70
2018-04-22T20:49:06.445Z,15.60
2018-04-22T20:51:32.844Z,15.60
2018-04-22T20:53:59.272Z,15.60
2018-04-22T20:56:25.678Z,15.50
2018-04-22T20:58:52.231Z,15.50
2018-04-22T21:01:18.624Z,15.50
2018-04-22T21:03:45.738Z,15.40
2018-04-22T21:06:12.900Z,15.30
2018-04-22T21:08:39.336Z,15.30
2018-04-22T21:11:05.779Z,15.20
2018-04-22T21:13:32.244Z,15.20
2018-04-22T21:15:58.681Z,15.20
2018-04-22T21:18:25.140Z,15.20
2018-04-22T21:20:52.374Z,15.10
2018-04-22T21:23:18.812Z,15.10
2018-04-22T21:25:45.260Z,15.10
2018-04-22T21:28:11.790Z,15.10
2018-04-22T21:30:38.213Z,15.00
2018-04-22T21:33:04.641Z,15.00
2018-04-22T21:35:31.100Z,15.00
2018-04-22T21:37:57.542Z,14.90
2018-04-22T21:40:24.014Z,14.90
2018-04-22T21:42:50.418Z,14.90
2018-04-22T21:45:16.866Z,14.80
2018-04-22T21:47:43.348Z,14.70
2018-04-22T21:50:09.784Z,14.70
2018-04-22T21:52:36.240Z,14.70
2018-04-22T21:55:02.869Z,14.60
2018-04-22T21:57:29.305Z,14.50
2018-04-22T21:59:55.689Z,14.50
2018-04-22T22:02:22.872Z,14.50
2018-04-22T22:04:49.279Z,14.50
2018-04-22T22:07:15.929Z,14.50
2018-04-22T22:09:42.333Z,14.50
2018-04-22T22:12:08.757Z,14.50
2018-04-22T22:14:35.256Z,14.50
2018-04-22T22:17:01.750Z,14.40
2018-04-22T22:19:28.872Z,14.30
2018-04-22T22:21:55.298Z,14.30
2018-04-22T22:24:21.754Z,14.30
2018-04-22T22:26:48.965Z,14.30
2018-04-22T22:29:15.407Z,14.20
2018-04-22T22:31:41.826Z,14.20
2018-04-22T22:34:08.209Z,14.20
2018-04-22T22:36:34.679Z,14.10
2018-04-22T22:39:01.113Z,14.10
2018-04-22T22:41:27.593Z,14.10
2018-04-22T22:43:54.016Z,14.00
2018-04-22T22:46:20.489Z,13.90
2018-04-22T22:48:47.011Z,13.90
2018-04-22T22:51:13.748Z,13.80
2018-04-22T22:53:40.184Z,13.80
2018-04-22T22:56:06.593Z,13.80
2018-04-22T22:58:33.097Z,13.80
2018-04-22T23:01:00.646Z,13.80
2018-04-22T23:03:27.113Z,13.80
2018-04-22T23:05:53.511Z,13.70
2018-04-22T23:08:19.913Z,13.80
2018-04-22T23:10:47.143Z,14.00
2018-04-22T23:13:13.705Z,14.00
2018-04-22T23:15:40.118Z,14.10
2018-04-22T23:18:06.522Z,14.20
2018-04-22T23:20:32.915Z,14.40
2018-04-22T23:23:00.106Z,14.60
2018-04-22T23:25:27.260Z,14.70
2018-04-22T23:27:53.769Z,14.70
2018-04-22T23:30:20.285Z,14.80
2018-04-22T23:32:46.744Z,14.80
2018-04-22T23:35:13.240Z,14.80
2018-04-22T23:37:39.665Z,14.80
2018-04-22T23:40:06.063Z,15.00
2018-04-22T23:42:32.512Z,15.00
2018-04-22T23:44:58.936Z,15.10
2018-04-22T23:47:25.468Z,15.10
2018-04-22T23:49:51.821Z,15.10
2018-04-22T23:52:18.301Z,15.10
2018-04-22T23:54:44.669Z,15.00
2018-04-22T23:57:11.186Z,15.00
2018-04-22T23:59:37.626Z,14.90
